Time;durP1;ratioP1;P1;durP2;ratioP2;P2;SDS_P1;SDS_P2;PMS_P1;PMS_P2;Temp;Humidity;BMP_temperature;BMP_pressure;BME280_temperature;BME280_humidity;BME280_pressure;Samples;Min_cycle;Max_cycle;Signal;HPM_P1;HPM_P2
2023/10/10 00:02:19;;;;;;;;;15.33;15.33;;;;;19.97;53.52;101702.47;5104645;27;45479;-69
2023/10/10 00:04:47;;;;;;;;;13.33;12.00;;;;;20.04;53.90;101722.34;5116716;27;45465;-69
2023/10/10 00:07:14;;;;;;;;;14.33;13.67;;;;;19.94;54.08;101710.94;5109070;27;45493;-71
2023/10/10 00:09:44;;;;;;;;;12.00;10.33;;;;;19.96;53.95;101706.19;5106726;27;46828;-69
2023/10/10 00:12:12;;;;;;;;;16.67;14.67;;;;;20.02;54.23;101727.03;5097384;27;45335;-69
2023/10/10 00:14:37;;;;;;;;;17.00;14.00;;;;;19.99;53.91;101722.84;5114923;27;45496;-68
2023/10/10 00:17:07;;;;;;;;;11.67;11.00;;;;;19.96;53.98;101719.69;5105364;27;45573;-68
2023/10/10 00:19:43;;;;;;;;;19.00;13.67;;;;;19.94;54.03;101721.72;5110301;27;47358;-73
2023/10/10 00:22:09;;;;;;;;;16.33;14.67;;;;;19.71;54.02;101695.59;5100965;27;45348;-69
2023/10/10 00:24:35;;;;;;;;;12.67;10.67;;;;;19.94;53.96;101727.97;5108484;27;45398;-69
2023/10/10 00:27:12;;;;;;;;;15.33;14.00;;;;;19.95;53.80;101736.91;5101781;27;45350;-69
2023/10/10 00:29:42;;;;;;;;;18.00;16.00;;;;;19.86;54.02;101722.66;5108271;27;46677;-69
2023/10/10 00:32:13;;;;;;;;;13.67;12.00;;;;;19.87;54.12;101723.47;5112632;27;45581;-69
2023/10/10 00:34:38;;;;;;;;;12.33;11.33;;;;;19.89;54.09;101737.63;5111858;27;45533;-69
2023/10/10 00:37:13;;;;;;;;;14.67;13.00;;;;;19.86;53.99;101730.75;5108744;27;45466;-68
2023/10/10 00:39:38;;;;;;;;;14.33;11.33;;;;;19.86;53.88;101730.75;5116230;27;46425;-70
2023/10/10 00:42:08;;;;;;;;;11.00;11.00;;;;;19.53;53.90;101681.53;5109090;27;45532;-69
2023/10/10 00:44:37;;;;;;;;;14.67;12.33;;;;;19.71;53.53;101722.59;5116100;27;45473;-69
2023/10/10 00:47:05;;;;;;;;;14.33;10.67;;;;;19.83;53.73;101736.50;5111924;27;45591;-69
2023/10/10 00:49:37;;;;;;;;;13.67;10.67;;;;;19.79;53.67;101734.31;5113094;27;46515;-70
2023/10/10 00:52:06;;;;;;;;;13.00;11.00;;;;;19.74;53.62;101727.63;5118680;27;45356;-69
2023/10/10 00:54:39;;;;;;;;;11.00;11.00;;;;;19.75;53.52;101732.00;5113538;27;45346;-68
2023/10/10 00:57:08;;;;;;;;;13.33;11.33;;;;;19.62;53.56;101714.72;5108041;27;45276;-69
2023/10/10 00:59:42;;;;;;;;;11.00;6.00;;;;;19.65;53.14;101711.69;5114907;27;46826;-67
2023/10/10 01:02:10;;;;;;;;;12.67;11.67;;;;;19.73;53.56;101730.50;5108549;27;45327;-68
2023/10/10 01:04:39;;;;;;;;;14.00;12.67;;;;;19.66;53.65;101716.91;5100600;27;45528;-69
2023/10/10 01:07:09;;;;;;;;;9.00;6.33;;;;;19.63;53.68;101714.56;5110896;27;45628;-69
2023/10/10 01:09:41;;;;;;;;;12.67;11.33;;;;;19.69;53.68;101721.94;5112863;27;46908;-69
2023/10/10 01:12:06;;;;;;;;;12.33;12.33;;;;;19.42;53.89;101671.16;5082190;27;45494;-68
2023/10/10 01:14:32;;;;;;;;;13.00;12.00;;;;;19.40;53.67;101665.09;5107857;27;45291;-69
2023/10/10 01:16:58;;;;;;;;;12.00;12.00;;;;;19.65;53.68;101715.22;5108203;27;45468;-68
2023/10/10 01:19:30;;;;;;;;;10.33;10.33;;;;;19.36;53.77;101658.41;5104639;27;46230;-69
2023/10/10 01:21:59;;;;;;;;;14.67;10.67;;;;;19.65;53.80;101711.69;5111096;27;45585;-69
2023/10/10 01:24:25;;;;;;;;;11.33;9.33;;;;;19.64;53.80;101716.25;5107402;27;45271;-69
2023/10/10 01:26:51;;;;;;;;;14.67;10.67;;;;;19.62;53.88;101710.19;5106806;27;45520;-69
2023/10/10 01:29:26;;;;;;;;;10.33;10.00;;;;;19.59;53.93;101707.81;5084579;27;46409;-70
2023/10/10 01:31:53;;;;;;;;;11.33;10.33;;;;;19.59;53.73;101704.28;5084978;27;45511;-68
2023/10/10 01:34:43;;;;;;;;;12.33;11.33;;;;;19.54;53.79;101688.66;5103378;27;45416;-68
2023/10/10 01:39:53;;;;;;;;;9.00;8.00;;;;;19.56;53.92;101701.94;5099627;27;45794;-69
2023/10/10 01:42:27;;;;;;;;;11.33;9.67;;;;;19.43;54.09;101683.66;5101986;27;45390;-69
2023/10/10 01:44:54;;;;;;;;;11.67;9.67;;;;;19.44;53.94;101683.47;5104644;27;45244;-69
2023/10/10 01:47:26;;;;;;;;;15.00;11.33;;;;;19.46;54.17;101691.38;5097987;27;45529;-69
2023/10/10 01:49:52;;;;;;;;;8.67;8.67;;;;;19.48;54.04;101696.59;5099957;27;45674;-69
2023/10/10 01:52:20;;;;;;;;;10.00;10.00;;;;;19.44;53.92;101696.13;5110772;27;45317;-69
2023/10/10 01:54:52;;;;;;;;;8.67;8.67;;;;;19.43;54.13;101686.34;5102952;27;45207;-69
2023/10/10 01:57:21;;;;;;;;;12.33;11.00;;;;;19.44;54.38;101685.34;5110419;27;45566;-69
2023/10/10 01:59:47;;;;;;;;;12.00;10.33;;;;;19.41;54.47;101693.75;5101482;27;48878;-68
2023/10/10 02:02:18;;;;;;;;;11.67;9.67;;;;;19.38;54.49;101688.72;5120096;27;45334;-70
2023/10/10 02:04:44;;;;;;;;;12.00;9.00;;;;;19.40;54.60;101697.47;5120002;27;45264;-70
2023/10/10 02:07:55;;;;;;;;;11.00;11.00;;;;;19.38;54.38;101688.72;5120359;27;45441;-69
2023/10/10 02:10:04;;;;;;;;;11.33;11.33;;;;;19.36;54.45;101690.75;5104888;27;45510;-69
2023/10/10 02:12:33;;;;;;;;;13.33;11.33;;;;;19.27;54.43;101681.06;5119594;27;45344;-68
2023/10/10 02:14:59;;;;;;;;;8.33;8.33;;;;;19.34;54.82;101682.84;5119935;27;45417;-68
2023/10/10 02:17:26;;;;;;;;;14.00;10.67;;;;;19.32;54.64;101679.50;5100799;27;45505;-69
2023/10/10 02:23:08;;;;;;;;;9.67;8.67;;;;;19.30;54.70;101686.09;5100473;27;45501;-69
2023/10/10 02:27:55;;;;;;;;;8.33;8.00;;;;;19.27;54.98;101681.06;5110906;27;45500;-68
2023/10/10 02:30:40;;;;;;;;;7.33;7.33;;;;;19.13;54.69;101670.00;5109937;27;47882;-69
2023/10/10 02:35:54;;;;;;;;;11.00;11.00;;;;;19.23;55.07;101687.84;5114690;27;45262;-69
2023/10/10 02:38:31;;;;;;;;;11.33;9.33;;;;;19.18;54.81;101672.16;5113003;27;45387;-69
2023/10/10 02:41:14;;;;;;;;;10.33;10.33;;;;;19.13;55.16;101661.09;5110181;27;47573;-68
2023/10/10 02:46:35;;;;;;;;;10.00;10.00;;;;;19.14;54.67;101674.38;5105632;27;45335;-69
2023/10/10 02:49:12;;;;;;;;;10.00;7.00;;;;;19.10;55.00;101670.38;5099070;27;45216;-69
2023/10/10 02:51:41;;;;;;;;;12.00;10.67;;;;;19.09;55.21;101671.38;5106587;27;45821;-69
2023/10/10 02:54:20;;;;;;;;;9.00;8.00;;;;;19.09;54.81;101668.69;5106527;27;45329;-70
2023/10/10 02:56:48;;;;;;;;;13.67;11.33;;;;;19.09;54.87;101674.09;5114754;27;45358;-70
2023/10/10 02:59:21;;;;;;;;;11.33;9.67;;;;;19.05;54.93;101658.44;5110099;27;45482;-70
2023/10/10 03:01:55;;;;;;;;;14.67;13.00;;;;;19.09;54.83;101676.78;5109439;27;47595;-68
2023/10/10 03:04:22;;;;;;;;;11.33;10.33;;;;;19.06;55.16;101671.75;5098641;27;45509;-70
2023/10/10 03:06:48;;;;;;;;;12.67;9.67;;;;;19.07;55.10;101676.13;5113119;27;45515;-70
2023/10/10 03:09:38;;;;;;;;;11.00;10.00;;;;;19.06;54.97;101676.28;5117713;27;45169;-69
2023/10/10 03:12:05;;;;;;;;;11.00;9.00;;;;;19.03;54.99;101676.66;5109379;27;45904;-69
2023/10/10 03:14:33;;;;;;;;;9.33;8.00;;;;;19.01;54.84;101662.50;5098411;27;45435;-70
2023/10/10 03:17:03;;;;;;;;;10.67;8.67;;;;;19.03;55.15;101668.56;5098403;27;45727;-69
2023/10/10 03:19:36;;;;;;;;;7.00;7.00;;;;;18.97;55.33;101664.69;5101557;27;45676;-69
2023/10/10 03:22:27;;;;;;;;;12.33;11.00;;;;;19.01;55.28;101665.19;5110080;27;45838;-69
2023/10/10 03:25:09;;;;;;;;;11.67;10.67;;;;;18.99;54.94;101665.38;5105834;27;45496;-70
2023/10/10 03:27:48;;;;;;;;;10.67;9.67;;;;;18.95;55.16;101660.50;5106091;27;45505;-69
2023/10/10 03:30:17;;;;;;;;;11.33;10.00;;;;;18.92;55.90;101661.72;5106587;27;45153;-69
2023/10/10 03:35:52;;;;;;;;;10.00;10.00;;;;;18.95;55.46;101664.03;5106530;27;45528;-68
2023/10/10 03:38:31;;;;;;;;;14.33;11.67;;;;;18.93;55.81;101662.53;5116404;27;45472;-69
2023/10/10 05:23:29;;;;;;;;;11.67;10.67;;;;;18.84;56.00;101653.69;5101157;27;45714;-69
2023/10/10 05:25:08;;;;;;;;;10.00;8.67;;;;;18.35;57.36;101645.75;5107239;27;45489;-70
2023/10/10 05:27:41;;;;;;;;;11.67;10.33;;;;;18.36;57.16;101636.66;5114636;27;45329;-70
2023/10/10 05:30:55;;;;;;;;;11.67;10.33;;;;;18.35;57.46;101637.66;5105926;27;45718;-70
2023/10/10 05:33:03;;;;;;;;;14.67;8.33;;;;;18.32;57.54;101635.31;5089750;27;45620;-69
2023/10/10 05:35:34;;;;;;;;;12.00;10.33;;;;;18.17;57.59;101596.66;5081675;27;45907;-71
2023/10/10 05:38:01;;;;;;;;;13.33;11.67;;;;;18.29;57.47;101627.59;5112155;27;45244;-70
2023/10/10 05:40:27;;;;;;;;;13.00;11.33;;;;;18.26;57.50;101610.97;5111630;27;45358;-70
2023/10/10 05:42:53;;;;;;;;;13.00;12.00;;;;;18.31;57.40;101625.56;5108010;27;46584;-69
2023/10/10 05:45:21;;;;;;;;;13.67;10.67;;;;;18.01;57.66;101585.94;5099628;27;45490;-70
2023/10/10 05:47:47;;;;;;;;;14.33;12.67;;;;;18.24;57.42;101622.75;5100829;27;45555;-70
2023/10/10 05:50:13;;;;;;;;;13.00;12.33;;;;;18.12;57.49;101593.66;5119104;27;45523;-70
2023/10/10 05:52:40;;;;;;;;;15.00;14.00;;;;;18.29;57.45;101621.38;5102099;27;45665;-68
2023/10/10 05:55:07;;;;;;;;;14.67;13.67;;;;;18.28;57.69;101630.47;5106979;27;45331;-70
2023/10/10 05:57:36;;;;;;;;;12.33;11.33;;;;;18.21;57.47;101620.38;5103989;27;45508;-69
2023/10/10 06:00:05;;;;;;;;;15.33;12.33;;;;;18.27;57.48;101628.78;5098248;27;45612;-69
2023/10/10 06:02:31;;;;;;;;;10.67;10.67;;;;;18.21;57.74;101611.44;5099095;27;46999;-69
2023/10/10 06:04:57;;;;;;;;;15.33;13.33;;;;;18.15;57.50;101609.47;5109246;27;45450;-69
2023/10/10 06:07:27;;;;;;;;;10.00;8.00;;;;;17.99;57.73;101577.19;5097082;27;45484;-70
2023/10/10 06:09:57;;;;;;;;;11.67;11.67;;;;;18.27;57.31;101635.00;5112757;27;45631;-71
2023/10/10 06:12:26;;;;;;;;;13.67;12.33;;;;;18.27;57.63;101637.69;5101854;27;47532;-70
2023/10/10 06:14:55;;;;;;;;;17.33;13.67;;;;;18.24;57.47;101629.97;5090719;27;45314;-69
2023/10/10 06:17:23;;;;;;;;;13.33;13.33;;;;;18.29;57.64;101635.66;5114543;27;45312;-73
2023/10/10 06:19:50;;;;;;;;;17.33;15.00;;;;;18.28;57.59;101630.47;5113212;27;45620;-76
2023/10/10 06:22:16;;;;;;;;;18.00;13.67;;;;;18.33;57.87;101639.69;5112913;27;46022;-68
2023/10/10 06:24:42;;;;;;;;;12.67;12.00;;;;;18.34;57.88;101633.28;5106021;27;45505;-69
2023/10/10 06:27:13;;;;;;;;;14.33;13.33;;;;;18.29;57.83;101622.22;5100747;27;45383;-70
2023/10/10 06:29:40;;;;;;;;;15.00;15.00;;;;;18.37;58.33;101634.78;5118668;27;45615;-68
2023/10/10 06:32:10;;;;;;;;;19.00;14.00;;;;;18.12;58.44;101588.28;5097655;27;47594;-69
2023/10/10 06:34:36;;;;;;;;;17.67;13.33;;;;;18.47;58.43;101635.44;5106880;27;45485;-69
2023/10/10 06:37:07;;;;;;;;;19.00;16.00;;;;;18.51;58.34;101643.00;5084672;27;45347;-70
2023/10/10 06:39:54;;;;;;;;;15.33;13.33;;;;;18.48;58.19;101624.50;5077947;27;45728;-70
2023/10/10 06:42:27;;;;;;;;;14.67;12.67;;;;;18.59;58.21;101625.13;5085159;27;46719;-68
2023/10/10 06:44:53;;;;;;;;;15.67;14.33;;;;;18.58;58.06;101628.81;5092470;27;45366;-73
2023/10/10 06:47:19;;;;;;;;;15.00;13.00;;;;;18.65;57.86;101633.38;5093140;27;45547;-69
2023/10/10 06:49:46;;;;;;;;;17.00;15.33;;;;;18.69;57.81;101634.72;5082809;27;45492;-71
2023/10/10 06:52:18;;;;;;;;;19.00;17.50;;;;;18.43;57.45;101588.34;5085368;27;46667;-69
2023/10/10 06:54:44;;;;;;;;;15.00;13.67;;;;;18.79;57.73;101639.88;5083035;27;45455;-73
2023/10/10 06:57:17;;;;;;;;;18.67;14.67;;;;;18.78;57.69;101632.81;5078923;27;45476;-70
2023/10/10 06:59:43;;;;;;;;;21.00;17.67;;;;;18.68;57.18;101606.09;5083888;27;45576;-67
2023/10/10 07:02:21;;;;;;;;;19.00;19.00;;;;;18.83;57.04;101612.44;5084701;27;45565;-70
2023/10/10 07:04:53;;;;;;;;;14.00;12.67;;;;;19.01;56.61;101628.28;5079757;27;45426;-71
2023/10/10 07:07:20;;;;;;;;;14.00;14.00;;;;;19.21;56.51;101644.84;5087847;27;45485;-69
2023/10/10 07:09:46;;;;;;;;;18.00;15.33;;;;;19.08;56.56;101585.31;5083621;27;45487;-70
2023/10/10 07:12:11;;;;;;;;;15.67;12.00;;;;;19.43;56.20;101627.03;5083914;27;46082;-70
2023/10/10 07:14:43;;;;;;;;;21.33;16.00;;;;;19.67;55.93;101639.50;5087885;27;45470;-71
2023/10/10 07:17:15;;;;;;;;;18.00;18.00;;;;;19.94;54.94;101625.41;5085936;27;45255;-69
2023/10/10 07:21:04;;;;;;;;;15.33;12.33;;;;;20.22;54.17;101636.44;5089759;27;45480;-70
2023/10/10 07:22:41;;;;;;;;;19.67;19.00;;;;;20.09;53.81;101584.94;5092107;27;46047;-70
2023/10/10 07:28:05;;;;;;;;;20.33;17.67;;;;;20.61;52.61;101629.91;5073214;27;45597;-71
2023/10/10 07:30:36;;;;;;;;;12.33;12.33;;;;;20.51;51.92;101599.66;5086179;27;45467;-70
2023/10/10 07:33:12;;;;;;;;;14.00;13.33;;;;;20.79;51.81;101624.09;5076999;27;45943;-70
2023/10/10 07:35:43;;;;;;;;;17.33;15.00;;;;;20.77;51.58;101610.78;5084786;27;45616;-70
2023/10/10 07:38:08;;;;;;;;;17.67;15.33;;;;;20.93;51.33;101636.75;5101720;27;45331;-69
2023/10/10 07:40:38;;;;;;;;;20.33;17.00;;;;;21.08;51.14;101648.38;5105621;27;46835;-70
2023/10/10 07:43:03;;;;;;;;;20.00;19.33;;;;;21.05;50.83;101629.00;5084194;27;47957;-70
2023/10/10 07:45:33;;;;;;;;;22.67;19.00;;;;;21.09;50.72;101627.56;5098562;27;45499;-69
2023/10/10 07:50:34;;;;;;;;;24.00;19.00;;;;;21.25;50.62;101662.53;5098199;27;45407;-69
2023/10/10 07:53:05;;;;;;;;;18.00;18.00;;;;;21.20;50.50;101654.09;5103666;27;45948;-69
2023/10/10 07:55:52;;;;;;;;;21.00;17.67;;;;;21.13;50.63;101627.00;5105787;27;45537;-69
2023/10/10 07:58:27;;;;;;;;;19.33;17.33;;;;;21.17;50.56;101638.25;5106880;27;45529;-70
2023/10/10 08:00:53;;;;;;;;;16.67;15.67;;;;;21.35;50.46;101656.78;5100372;27;45285;-70
2023/10/10 08:03:19;;;;;;;;;23.00;19.67;;;;;21.30;50.53;101649.25;5107138;27;46608;-68
2023/10/10 08:05:48;;;;;;;;;19.00;18.00;;;;;21.45;50.36;101668.97;5095881;27;46350;-71
2023/10/10 08:08:18;;;;;;;;;19.00;17.33;;;;;21.47;50.26;101661.50;5098486;27;45464;-69
2023/10/10 08:10:49;;;;;;;;;22.67;19.67;;;;;21.51;49.92;101660.09;5096525;27;45437;-72
2023/10/10 08:13:15;;;;;;;;;17.67;15.00;;;;;21.40;49.68;101649.75;5096692;27;48069;-70
2023/10/10 08:15:51;;;;;;;;;18.33;16.33;;;;;21.15;49.81;101602.47;5099805;27;45524;-70
2023/10/10 08:23:29;;;;;;;;;19.33;17.00;;;;;21.68;49.59;101671.50;5114747;27;45485;-71
2023/10/10 08:25:56;;;;;;;;;20.67;18.67;;;;;21.72;49.16;101674.63;5107606;27;45484;-69
2023/10/10 08:28:22;;;;;;;;;17.67;16.33;;;;;21.37;49.25;101633.91;5097810;27;45451;-69
2023/10/10 08:30:49;;;;;;;;;22.67;16.67;;;;;21.54;49.27;101670.50;5098420;27;45454;-69
2023/10/10 08:33:14;;;;;;;;;19.67;17.33;;;;;21.55;49.10;101680.31;5096397;27;45614;-70
2023/10/10 08:35:42;;;;;;;;;18.67;16.67;;;;;21.45;49.41;101657.31;5097413;27;45914;-75
2023/10/10 08:38:08;;;;;;;;;16.67;15.67;;;;;21.42;49.99;101663.94;5106215;27;45489;-69
2023/10/10 08:40:35;;;;;;;;;18.67;17.67;;;;;21.34;49.99;101655.13;5100839;27;45633;-72
2023/10/10 08:43:03;;;;;;;;;23.67;18.33;;;;;21.37;50.36;101652.03;5110790;27;46599;-70
2023/10/10 08:45:39;;;;;;;;;19.67;19.00;;;;;21.17;50.08;101605.81;5103622;27;45388;-69
2023/10/10 08:48:12;;;;;;;;;15.33;15.33;;;;;21.52;50.21;101642.81;5105285;27;45648;-70
2023/10/10 08:50:42;;;;;;;;;27.67;19.00;;;;;21.41;49.82;101597.34;5113219;27;45530;-70
2023/10/10 08:53:14;;;;;;;;;20.00;18.00;;;;;21.84;49.85;101649.56;5110257;27;46687;-70
2023/10/10 08:55:43;;;;;;;;;22.33;21.33;;;;;21.94;49.51;101638.38;5109615;27;45325;-71
2023/10/10 08:58:09;;;;;;;;;20.00;18.00;;;;;22.27;49.47;101660.31;5118383;27;45347;-71
2023/10/10 09:00:35;;;;;;;;;23.00;20.67;;;;;22.42;48.51;101643.91;5111485;27;45541;-68
2023/10/10 09:03:00;;;;;;;;;19.33;18.00;;;;;22.62;48.39;101650.28;5103026;27;47072;-69
2023/10/10 09:05:29;;;;;;;;;20.67;17.67;;;;;22.75;47.94;101639.50;5101360;27;45490;-69
2023/10/10 09:07:55;;;;;;;;;16.67;15.00;;;;;22.91;47.22;101649.19;5115234;27;45423;-72
2023/10/10 09:10:30;;;;;;;;;21.67;17.33;;;;;22.97;47.15;101648.38;5108952;27;45617;-71
2023/10/10 09:15:21;;;;;;;;;21.00;17.33;;;;;23.03;46.76;101654.88;5113328;27;45425;-70
2023/10/10 09:17:48;;;;;;;;;17.33;15.00;;;;;23.02;46.93;101654.00;5110752;27;45475;-71
2023/10/10 09:20:31;;;;;;;;;17.00;15.33;;;;;23.01;46.76;101654.22;5104109;27;45467;-70
2023/10/10 09:23:04;;;;;;;;;14.67;13.33;;;;;22.98;46.88;101641.06;5110890;27;45725;-70
2023/10/10 09:25:42;;;;;;;;;19.00;17.00;;;;;23.03;47.02;101652.16;5106689;27;45519;-70
2023/10/10 09:28:10;;;;;;;;;16.00;13.00;;;;;22.96;47.00;101635.84;5105474;27;45304;-70
2023/10/10 09:30:45;;;;;;;;;17.67;14.33;;;;;23.00;46.96;101641.69;5109450;27;45490;-70
2023/10/10 09:33:22;;;;;;;;;12.33;11.33;;;;;23.07;46.62;101645.28;5117480;27;45719;-70
2023/10/10 09:35:54;;;;;;;;;13.33;13.00;;;;;23.08;46.76;101637.97;5094480;27;45568;-71
2023/10/10 09:38:22;;;;;;;;;12.00;10.00;;;;;23.13;46.75;101641.75;5105756;27;45446;-70
2023/10/10 09:40:58;;;;;;;;;14.67;12.67;;;;;23.19;47.06;101632.78;5107172;27;45415;-69
2023/10/10 09:43:35;;;;;;;;;15.67;14.00;;;;;23.05;46.68;101614.81;5080139;27;48250;-70
2023/10/10 09:46:19;;;;;;;;;10.33;9.33;;;;;23.12;46.64;101622.97;5106784;27;45443;-70
2023/10/10 09:49:17;;;;;;;;;11.67;10.00;;;;;23.27;46.71;101635.31;5108389;27;45516;-71
2023/10/10 09:54:25;;;;;;;;;7.33;5.00;;;;;23.48;46.61;101637.00;5109974;27;45439;-68
2023/10/10 09:56:53;;;;;;;;;16.00;11.00;;;;;23.56;46.40;101636.81;5107231;27;45512;-70
2023/10/10 09:59:20;;;;;;;;;10.33;10.33;;;;;23.64;46.25;101638.53;5106614;27;45485;-69
2023/10/10 10:01:59;;;;;;;;;15.67;11.67;;;;;23.67;46.07;101638.09;5107565;27;45493;-69
2023/10/10 10:04:28;;;;;;;;;13.33;12.33;;;;;23.73;46.68;101637.25;5097966;27;45849;-70
2023/10/10 10:07:12;;;;;;;;;12.33;10.00;;;;;23.81;46.36;101641.63;5113533;27;45435;-70
2023/10/10 10:09:56;;;;;;;;;14.33;11.00;;;;;23.73;46.54;101631.81;5097988;27;45469;-69
2023/10/10 10:12:53;;;;;;;;;10.67;9.33;;;;;23.73;46.55;101637.25;5097814;27;45581;-69
2023/10/10 10:15:48;;;;;;;;;9.67;8.67;;;;;23.66;46.32;101628.28;5104286;27;46461;-70
2023/10/10 10:18:28;;;;;;;;;11.33;10.67;;;;;23.61;46.77;101634.31;5101838;27;45462;-70
2023/10/10 10:23:34;;;;;;;;;12.33;10.00;;;;;23.56;47.00;101636.81;5109097;27;45421;-85
2023/10/10 10:26:10;;;;;;;;;14.00;11.00;;;;;23.51;46.97;101628.44;5100999;27;46691;-69
2023/10/10 10:28:37;;;;;;;;;11.67;9.00;;;;;23.54;47.36;101627.19;5101343;27;45573;-69
2023/10/10 10:31:07;;;;;;;;;10.00;9.00;;;;;23.55;47.33;101623.44;5100695;27;45384;-70
2023/10/10 10:33:36;;;;;;;;;12.33;10.67;;;;;23.50;47.42;101610.50;5096593;27;45619;-69
2023/10/10 10:36:15;;;;;;;;;8.33;8.33;;;;;23.57;47.00;101622.22;5096868;27;46750;-69
2023/10/10 10:39:18;;;;;;;;;14.33;14.33;;;;;23.57;47.08;101626.81;5110724;27;45329;-70
2023/10/10 10:41:41;;;;;;;;;19.33;15.00;;;;;23.52;46.83;101605.69;5116340;27;45548;-69
2023/10/10 10:44:09;;;;;;;;;11.67;9.00;;;;;23.62;47.03;101616.16;5118201;27;45328;-68
2023/10/10 10:46:40;;;;;;;;;13.67;10.00;;;;;23.37;47.23;101567.88;5100503;27;46765;-70
2023/10/10 10:49:12;;;;;;;;;11.00;8.33;;;;;23.63;46.79;101607.00;5101404;27;45529;-70
2023/10/10 10:51:43;;;;;;;;;12.33;10.67;;;;;23.68;46.69;101607.19;5117218;27;45300;-70
2023/10/10 10:54:10;;;;;;;;;12.33;11.00;;;;;23.79;46.43;101609.25;5109806;27;45452;-69
2023/10/10 10:59:21;;;;;;;;;10.67;10.67;;;;;23.92;46.65;101603.00;5111642;27;45335;-69
2023/10/10 11:02:00;;;;;;;;;12.00;11.00;;;;;23.98;46.22;101596.69;5109684;27;45497;-68
2023/10/10 11:04:42;;;;;;;;;10.33;10.33;;;;;24.01;46.79;101595.44;5097750;27;45512;-69
2023/10/10 11:07:09;;;;;;;;;9.33;8.00;;;;;24.02;46.05;101587.06;5105552;27;46665;-69
2023/10/10 11:09:43;;;;;;;;;9.33;6.33;;;;;24.01;46.20;101573.72;5105446;27;45465;-69
2023/10/10 11:12:08;;;;;;;;;9.00;9.00;;;;;23.96;46.00;101567.03;5105634;27;45401;-69
2023/10/10 11:14:44;;;;;;;;;13.33;12.33;;;;;24.11;46.28;101587.69;5105705;27;45448;-70
2023/10/10 11:17:17;;;;;;;;;14.33;13.33;;;;;23.99;46.08;101568.50;5097709;27;47418;-70
2023/10/10 11:19:43;;;;;;;;;14.33;10.67;;;;;24.13;46.31;101589.16;5114090;27;45525;-69
2023/10/10 11:22:38;;;;;;;;;12.00;10.33;;;;;24.17;45.57;101589.56;5097386;27;45455;-70
2023/10/10 11:24:57;;;;;;;;;10.00;8.00;;;;;24.14;45.89;101573.69;5099204;27;45444;-70
2023/10/10 11:27:26;;;;;;;;;7.33;7.00;;;;;24.21;45.45;101580.75;5108945;27;45766;-68
2023/10/10 11:29:52;;;;;;;;;10.67;6.33;;;;;24.28;45.37;101575.31;5105207;27;45328;-68
2023/10/10 11:32:29;;;;;;;;;8.67;8.00;;;;;24.35;46.15;101570.72;5104170;27;45385;-69
2023/10/10 11:35:17;;;;;;;;;9.00;7.00;;;;;24.42;44.45;101559.81;5108858;27;45648;-70
2023/10/10 11:37:48;;;;;;;;;7.67;5.33;;;;;24.58;44.66;101549.28;5097628;27;46763;-69
2023/10/10 11:42:55;;;;;;;;;7.33;6.67;;;;;24.83;43.03;101543.94;5097359;27;45328;-69
2023/10/10 11:45:25;;;;;;;;;7.67;7.67;;;;;24.89;42.67;101536.78;5102821;27;45382;-69
2023/10/10 11:47:52;;;;;;;;;12.00;8.00;;;;;25.07;43.37;101541.50;5079711;27;46624;-69
2023/10/10 11:50:22;;;;;;;;;8.00;7.00;;;;;25.18;42.77;101535.34;5087863;27;45456;-70
2023/10/10 11:52:58;;;;;;;;;9.33;8.33;;;;;24.96;42.49;101480.44;5097219;27;45532;-69
2023/10/10 11:55:25;;;;;;;;;7.00;6.33;;;;;25.43;42.58;101535.34;5105158;27;45414;-68
2023/10/10 11:57:51;;;;;;;;;9.67;9.67;;;;;25.52;41.99;101535.91;5099741;27;46064;-74
2023/10/10 12:00:30;;;;;;;;;9.00;6.50;;;;;25.58;42.03;101519.50;5096776;27;45399;-69
2023/10/10 12:02:57;;;;;;;;;8.00;8.00;;;;;25.58;41.72;101511.31;5116342;27;45556;-68
2023/10/10 12:08:07;;;;;;;;;7.67;6.00;;;;;25.85;40.58;101511.94;5096508;27;45608;-70
2023/10/10 12:13:09;;;;;;;;;13.00;12.00;;;;;25.90;40.33;101493.00;5100226;27;45598;-68
2023/10/10 12:15:40;;;;;;;;;10.00;8.33;;;;;25.86;39.50;101486.34;5108470;27;45442;-70
2023/10/10 12:18:09;;;;;;;;;7.67;5.00;;;;;26.02;39.28;101487.59;5116675;27;46577;-68
2023/10/10 12:20:36;;;;;;;;;7.00;7.00;;;;;26.10;39.61;101500.94;5099642;27;45539;-69
2023/10/10 12:23:03;;;;;;;;;10.67;9.67;;;;;26.10;38.89;101486.47;5100105;27;45398;-69
2023/10/10 12:25:28;;;;;;;;;16.67;15.67;;;;;26.10;38.54;101495.50;5089404;27;45657;-68
2023/10/10 12:28:00;;;;;;;;;9.33;7.67;;;;;26.06;37.63;101486.94;5108931;27;47264;-68
2023/10/10 12:30:26;;;;;;;;;7.67;6.67;;;;;25.99;38.75;101471.72;5118268;27;45302;-69
2023/10/10 12:32:51;;;;;;;;;6.33;6.33;;;;;26.02;37.65;101473.97;5105620;27;45352;-69
2023/10/10 12:35:17;;;;;;;;;8.00;8.00;;;;;26.05;37.68;101479.00;5101254;27;45550;-70
2023/10/10 12:37:44;;;;;;;;;11.00;8.67;;;;;25.83;37.56;101442.34;5112219;27;46690;-68
2023/10/10 12:40:11;;;;;;;;;10.33;8.00;;;;;25.94;37.77;101463.41;5104965;27;45432;-69
2023/10/10 12:42:36;;;;;;;;;9.67;8.33;;;;;26.02;38.28;101477.53;5111564;27;45318;-69
2023/10/10 12:45:03;;;;;;;;;6.33;6.00;;;;;26.01;37.35;101469.59;5109192;27;45526;-69
2023/10/10 12:47:31;;;;;;;;;8.67;6.33;;;;;26.02;37.09;101468.53;5119045;27;47455;-68
2023/10/10 12:50:00;;;;;;;;;8.00;6.00;;;;;25.95;38.19;101465.06;5104809;27;45553;-70
2023/10/10 12:52:35;;;;;;;;;7.00;7.00;;;;;25.97;36.70;101454.78;5112080;27;45409;-68
2023/10/10 12:55:08;;;;;;;;;19.33;19.33;;;;;25.96;37.24;101453.09;5100124;27;45432;-69
2023/10/10 12:57:35;;;;;;;;;8.33;6.33;;;;;25.70;36.88;101411.50;5105973;27;47867;-67
2023/10/10 13:00:23;;;;;;;;;9.00;5.00;;;;;25.95;36.73;101454.16;5099677;27;45362;-69
2023/10/10 13:02:46;;;;;;;;;6.00;6.00;;;;;25.93;35.90;101454.41;5113687;27;45528;-69
2023/10/10 13:05:12;;;;;;;;;9.50;7.00;;;;;25.92;35.59;101446.47;5109872;27;45484;-71
2023/10/10 13:07:39;;;;;;;;;7.33;6.00;;;;;25.70;35.68;101411.50;5116241;27;47465;-68
2023/10/10 13:10:10;;;;;;;;;10.00;8.00;;;;;25.83;35.79;101436.91;5104922;27;46201;-71
2023/10/10 13:12:47;;;;;;;;;13.00;8.67;;;;;25.83;35.90;101442.34;5099545;27;45530;-68
2023/10/10 13:15:18;;;;;;;;;9.00;7.00;;;;;25.87;35.46;101443.59;5103098;27;45571;-69
2023/10/10 13:17:53;;;;;;;;;7.67;7.00;;;;;25.87;36.12;101446.31;5080600;27;48613;-69
2023/10/10 13:20:21;;;;;;;;;8.00;7.33;;;;;25.86;35.79;101441.94;5099019;27;45532;-69
2023/10/10 13:22:50;;;;;;;;;6.00;6.00;;;;;25.86;36.46;101439.19;5106813;27;45358;-69
2023/10/10 13:25:17;;;;;;;;;8.00;7.00;;;;;25.84;37.02;101439.44;5101166;27;45594;-68
2023/10/10 13:27:45;;;;;;;;;7.33;7.33;;;;;25.82;36.36;101441.53;5091936;27;46644;-68
2023/10/10 13:30:12;;;;;;;;;9.00;6.33;;;;;25.80;35.70;101440.09;5103514;27;45569;-68
2023/10/10 13:32:38;;;;;;;;;7.67;6.00;;;;;25.79;35.09;101431.09;5089924;27;45676;-68
2023/10/10 13:35:05;;;;;;;;;8.25;7.00;;;;;25.81;35.02;101426.25;5101539;27;45446;-69
2023/10/10 13:37:30;;;;;;;;;11.67;7.33;;;;;25.75;35.32;101417.09;5105281;27;46753;-68
2023/10/10 13:39:56;;;;;;;;;10.67;7.67;;;;;25.76;35.09;101409.75;5102029;27;45428;-68
2023/10/10 13:42:21;;;;;;;;;6.33;5.33;;;;;25.82;34.28;101419.72;5098546;27;49881;-69
2023/10/10 13:44:48;;;;;;;;;8.00;7.67;;;;;25.88;34.15;101428.91;5107914;27;45174;-68
2023/10/10 13:47:16;;;;;;;;;7.67;6.67;;;;;25.91;35.26;101417.53;5098808;27;47582;-68
2023/10/10 13:49:44;;;;;;;;;8.67;7.67;;;;;25.90;34.53;101426.78;5109982;27;45501;-68
2023/10/10 13:52:16;;;;;;;;;6.33;6.33;;;;;25.96;33.56;101434.03;5111919;27;45405;-68
2023/10/10 13:54:41;;;;;;;;;8.67;7.00;;;;;25.90;33.46;101415.88;5115939;27;45432;-69
2023/10/10 13:57:07;;;;;;;;;6.00;6.00;;;;;25.91;35.59;101412.09;5107005;27;46219;-69
2023/10/10 13:59:33;;;;;;;;;7.67;6.00;;;;;25.98;35.23;101424.56;5098916;27;45486;-69